Breves, Brazil
Current Conditions -  °F | °C
As of 5:00 AM on Friday 31 Oct 2014 (Local Time) from SBMQ Reporting Station
Clear Clear  
Wind Chill: 77°   Ceiling: Unl
Heat Index: 78°   Visibility: 6mi
Dew Point: 73°   Wind: 5mph
Humidity: 89%   Direction: 20°NNE
Pressure: 29.8"   Gusts: NA
Location:  1.68°S, 50.48°W
Report Text: SBMQ 310800Z 02004KT CAVOK 25/23 Q1009
Loading
Personal Weather Stations






























Interactive Weather Map
Tropical Storm Tracking
New forecast layout! Learn more

10-Day Weather Forecast

Advertisements
Track Severe Weather on mobile